Scott Bar, California
Current Conditions -  °F | °C
As of 5:53 PM on Wednesday 22 Oct 2014 (Local Time) from KSIY Reporting Station
Overcast Overcast  
Wind Chill: 16°   Ceiling: 6000
Heat Index: 16°   Visibility: 10mi
Dew Point:   Wind: 21mph
Humidity: 52%   Direction: 170°S
Pressure: 29.95"   Gusts: 29mph
Location:  41.74°N, 123°W
Report Text: KSIY 230053Z AUTO 17018G25KT 10SM OVC060 16/06 A2995 RMK AO2 SLP145 T01610061
Loading
Personal Weather Stations






























Interactive Weather Map
Tropical Storm Tracking
New forecast layout! Learn more

10-Day Weather Forecast

Advertisements
Track Severe Weather on mobile